sensor_id;sensor_type;location;lat;lon;timestamp;P1;durP1;ratioP1;P2;durP2;ratioP2
21170;SDS011;10743;52.160;20.910;2022-10-16T00:01:40;13.00;;;6.07;;
21170;SDS011;10743;52.160;20.910;2022-10-16T00:04:07;16.75;;;7.28;;
21170;SDS011;10743;52.160;20.910;2022-10-16T00:06:35;11.60;;;7.25;;
21170;SDS011;10743;52.160;20.910;2022-10-16T00:09:02;13.32;;;6.63;;
21170;SDS011;10743;52.160;20.910;2022-10-16T00:11:33;10.10;;;6.38;;
21170;SDS011;10743;52.160;20.910;2022-10-16T00:14:04;12.05;;;7.25;;
21170;SDS011;10743;52.160;20.910;2022-10-16T00:16:41;12.80;;;7.25;;
21170;SDS011;10743;52.160;20.910;2022-10-16T00:19:09;11.95;;;6.47;;
21170;SDS011;10743;52.160;20.910;2022-10-16T00:21:38;15.27;;;7.65;;
21170;SDS011;10743;52.160;20.910;2022-10-16T00:24:06;15.52;;;8.77;;
21170;SDS011;10743;52.160;20.910;2022-10-16T00:26:36;16.10;;;8.68;;
21170;SDS011;10743;52.160;20.910;2022-10-16T00:29:05;14.95;;;8.70;;
21170;SDS011;10743;52.160;20.910;2022-10-16T00:31:33;19.13;;;10.20;;
21170;SDS011;10743;52.160;20.910;2022-10-16T00:34:00;20.45;;;10.18;;
21170;SDS011;10743;52.160;20.910;2022-10-16T00:36:27;18.73;;;10.07;;
21170;SDS011;10743;52.160;20.910;2022-10-16T00:38:54;17.73;;;10.48;;
21170;SDS011;10743;52.160;20.910;2022-10-16T00:41:30;20.75;;;10.43;;
21170;SDS011;10743;52.160;20.910;2022-10-16T00:43:59;16.92;;;9.98;;
21170;SDS011;10743;52.160;20.910;2022-10-16T00:46:29;18.83;;;10.85;;
21170;SDS011;10743;52.160;20.910;2022-10-16T00:49:14;20.70;;;10.07;;
21170;SDS011;10743;52.160;20.910;2022-10-16T00:51:45;21.52;;;10.20;;
21170;SDS011;10743;52.160;20.910;2022-10-16T00:54:21;16.67;;;10.07;;
21170;SDS011;10743;52.160;20.910;2022-10-16T00:56:53;16.20;;;9.43;;
21170;SDS011;10743;52.160;20.910;2022-10-16T00:59:23;17.20;;;9.98;;
21170;SDS011;10743;52.160;20.910;2022-10-16T01:01:54;17.65;;;10.40;;
21170;SDS011;10743;52.160;20.910;2022-10-16T01:04:22;20.85;;;10.63;;
21170;SDS011;10743;52.160;20.910;2022-10-16T01:09:57;18.13;;;10.27;;
21170;SDS011;10743;52.160;20.910;2022-10-16T01:12:58;19.08;;;10.30;;
21170;SDS011;10743;52.160;20.910;2022-10-16T01:15:53;21.98;;;11.25;;
21170;SDS011;10743;52.160;20.910;2022-10-16T01:18:42;22.40;;;12.18;;
21170;SDS011;10743;52.160;20.910;2022-10-16T01:21:26;24.92;;;13.00;;
21170;SDS011;10743;52.160;20.910;2022-10-16T01:27:10;21.42;;;11.25;;
21170;SDS011;10743;52.160;20.910;2022-10-16T01:29:54;18.73;;;10.65;;
21170;SDS011;10743;52.160;20.910;2022-10-16T01:32:31;19.73;;;10.63;;
21170;SDS011;10743;52.160;20.910;2022-10-16T01:40:26;19.48;;;10.40;;
21170;SDS011;10743;52.160;20.910;2022-10-16T01:42:55;20.73;;;10.18;;
21170;SDS011;10743;52.160;20.910;2022-10-16T01:45:30;20.17;;;10.15;;
21170;SDS011;10743;52.160;20.910;2022-10-16T01:48:00;21.05;;;10.45;;
21170;SDS011;10743;52.160;20.910;2022-10-16T01:50:31;22.55;;;10.77;;
21170;SDS011;10743;52.160;20.910;2022-10-16T01:53:03;21.40;;;11.80;;
21170;SDS011;10743;52.160;20.910;2022-10-16T01:55:32;18.55;;;10.50;;
21170;SDS011;10743;52.160;20.910;2022-10-16T01:58:05;19.73;;;10.50;;
21170;SDS011;10743;52.160;20.910;2022-10-16T02:00:36;22.48;;;11.45;;
21170;SDS011;10743;52.160;20.910;2022-10-16T02:03:08;17.60;;;10.65;;
21170;SDS011;10743;52.160;20.910;2022-10-16T02:08:17;20.02;;;10.85;;
21170;SDS011;10743;52.160;20.910;2022-10-16T02:10:45;20.85;;;11.70;;
21170;SDS011;10743;52.160;20.910;2022-10-16T02:13:13;19.67;;;10.60;;
21170;SDS011;10743;52.160;20.910;2022-10-16T02:15:47;18.77;;;10.85;;
21170;SDS011;10743;52.160;20.910;2022-10-16T02:18:13;22.88;;;11.13;;
21170;SDS011;10743;52.160;20.910;2022-10-16T02:20:51;18.25;;;10.93;;
21170;SDS011;10743;52.160;20.910;2022-10-16T02:23:45;22.23;;;11.63;;
21170;SDS011;10743;52.160;20.910;2022-10-16T02:26:31;20.85;;;10.35;;
21170;SDS011;10743;52.160;20.910;2022-10-16T02:29:08;20.48;;;11.10;;
21170;SDS011;10743;52.160;20.910;2022-10-16T02:31:41;24.48;;;11.70;;
21170;SDS011;10743;52.160;20.910;2022-10-16T02:34:13;19.20;;;10.30;;
21170;SDS011;10743;52.160;20.910;2022-10-16T02:36:42;21.45;;;11.68;;
21170;SDS011;10743;52.160;20.910;2022-10-16T02:39:11;26.10;;;11.98;;
21170;SDS011;10743;52.160;20.910;2022-10-16T02:41:38;20.13;;;10.90;;
21170;SDS011;10743;52.160;20.910;2022-10-16T02:44:05;20.63;;;11.88;;
21170;SDS011;10743;52.160;20.910;2022-10-16T02:46:32;24.65;;;11.85;;
21170;SDS011;10743;52.160;20.910;2022-10-16T02:48:59;22.65;;;11.85;;
21170;SDS011;10743;52.160;20.910;2022-10-16T02:51:26;21.55;;;11.35;;
21170;SDS011;10743;52.160;20.910;2022-10-16T02:53:53;26.05;;;12.43;;
21170;SDS011;10743;52.160;20.910;2022-10-16T02:56:20;19.50;;;11.73;;
21170;SDS011;10743;52.160;20.910;2022-10-16T02:58:47;21.73;;;12.75;;
21170;SDS011;10743;52.160;20.910;2022-10-16T03:01:14;21.20;;;11.63;;
21170;SDS011;10743;52.160;20.910;2022-10-16T03:03:43;20.50;;;11.77;;
21170;SDS011;10743;52.160;20.910;2022-10-16T03:06:10;19.27;;;11.80;;
21170;SDS011;10743;52.160;20.910;2022-10-16T03:08:37;21.17;;;11.65;;
21170;SDS011;10743;52.160;20.910;2022-10-16T03:11:04;19.60;;;11.38;;
21170;SDS011;10743;52.160;20.910;2022-10-16T03:13:31;18.67;;;11.15;;
21170;SDS011;10743;52.160;20.910;2022-10-16T03:15:58;22.55;;;11.73;;
21170;SDS011;10743;52.160;20.910;2022-10-16T03:18:25;23.23;;;11.13;;
21170;SDS011;10743;52.160;20.910;2022-10-16T03:20:51;21.85;;;11.38;;
21170;SDS011;10743;52.160;20.910;2022-10-16T03:23:18;21.83;;;11.90;;
21170;SDS011;10743;52.160;20.910;2022-10-16T03:25:45;23.77;;;11.82;;
21170;SDS011;10743;52.160;20.910;2022-10-16T03:28:13;25.02;;;12.05;;
21170;SDS011;10743;52.160;20.910;2022-10-16T03:30:40;20.20;;;11.85;;
21170;SDS011;10743;52.160;20.910;2022-10-16T03:33:07;22.45;;;11.63;;
21170;SDS011;10743;52.160;20.910;2022-10-16T03:35:34;23.85;;;11.90;;
21170;SDS011;10743;52.160;20.910;2022-10-16T03:38:01;22.40;;;11.60;;
21170;SDS011;10743;52.160;20.910;2022-10-16T03:40:28;26.52;;;12.73;;
21170;SDS011;10743;52.160;20.910;2022-10-16T03:42:55;23.67;;;13.40;;
21170;SDS011;10743;52.160;20.910;2022-10-16T03:45:23;27.13;;;13.68;;
21170;SDS011;10743;52.160;20.910;2022-10-16T03:47:50;24.10;;;12.20;;
21170;SDS011;10743;52.160;20.910;2022-10-16T03:50:17;23.17;;;11.88;;
21170;SDS011;10743;52.160;20.910;2022-10-16T03:52:44;21.63;;;12.18;;
21170;SDS011;10743;52.160;20.910;2022-10-16T03:55:11;24.08;;;11.68;;
21170;SDS011;10743;52.160;20.910;2022-10-16T03:57:38;21.60;;;11.40;;
21170;SDS011;10743;52.160;20.910;2022-10-16T04:00:05;17.67;;;10.63;;
21170;SDS011;10743;52.160;20.910;2022-10-16T04:02:37;22.48;;;11.45;;
21170;SDS011;10743;52.160;20.910;2022-10-16T04:05:04;20.40;;;12.05;;
21170;SDS011;10743;52.160;20.910;2022-10-16T04:07:31;20.77;;;11.52;;
21170;SDS011;10743;52.160;20.910;2022-10-16T04:09:58;18.02;;;11.32;;
21170;SDS011;10743;52.160;20.910;2022-10-16T04:12:26;20.73;;;11.75;;
21170;SDS011;10743;52.160;20.910;2022-10-16T04:14:53;22.13;;;13.60;;
21170;SDS011;10743;52.160;20.910;2022-10-16T04:17:20;23.15;;;13.35;;
21170;SDS011;10743;52.160;20.910;2022-10-16T04:19:47;21.33;;;13.23;;
21170;SDS011;10743;52.160;20.910;2022-10-16T04:22:13;25.23;;;13.40;;
21170;SDS011;10743;52.160;20.910;2022-10-16T04:24:40;22.90;;;13.00;;
21170;SDS011;10743;52.160;20.910;2022-10-16T04:27:07;21.05;;;11.20;;
21170;SDS011;10743;52.160;20.910;2022-10-16T04:29:34;18.35;;;11.15;;
21170;SDS011;10743;52.160;20.910;2022-10-16T04:32:01;18.67;;;10.73;;
21170;SDS011;10743;52.160;20.910;2022-10-16T04:34:28;19.83;;;11.38;;
21170;SDS011;10743;52.160;20.910;2022-10-16T04:36:55;24.25;;;12.27;;
21170;SDS011;10743;52.160;20.910;2022-10-16T04:39:22;24.80;;;12.73;;
21170;SDS011;10743;52.160;20.910;2022-10-16T04:41:49;23.45;;;12.27;;
21170;SDS011;10743;52.160;20.910;2022-10-16T04:44:16;23.40;;;11.80;;
21170;SDS011;10743;52.160;20.910;2022-10-16T04:46:43;23.42;;;11.50;;
21170;SDS011;10743;52.160;20.910;2022-10-16T04:49:10;21.27;;;11.95;;
21170;SDS011;10743;52.160;20.910;2022-10-16T04:51:37;21.02;;;11.98;;
21170;SDS011;10743;52.160;20.910;2022-10-16T04:54:04;20.10;;;11.82;;
21170;SDS011;10743;52.160;20.910;2022-10-16T04:56:31;23.90;;;11.32;;
21170;SDS011;10743;52.160;20.910;2022-10-16T04:58:58;25.85;;;12.32;;
21170;SDS011;10743;52.160;20.910;2022-10-16T05:01:25;19.20;;;11.98;;
21170;SDS011;10743;52.160;20.910;2022-10-16T05:03:52;19.17;;;11.35;;
21170;SDS011;10743;52.160;20.910;2022-10-16T05:06:19;24.05;;;11.60;;
21170;SDS011;10743;52.160;20.910;2022-10-16T05:08:46;19.80;;;11.40;;
21170;SDS011;10743;52.160;20.910;2022-10-16T05:11:13;20.45;;;11.82;;
21170;SDS011;10743;52.160;20.910;2022-10-16T05:13:40;20.65;;;11.38;;
21170;SDS011;10743;52.160;20.910;2022-10-16T05:16:07;18.65;;;11.38;;
21170;SDS011;10743;52.160;20.910;2022-10-16T05:18:34;18.45;;;11.80;;
21170;SDS011;10743;52.160;20.910;2022-10-16T05:21:00;23.52;;;12.82;;
21170;SDS011;10743;52.160;20.910;2022-10-16T05:23:27;22.83;;;12.68;;
21170;SDS011;10743;52.160;20.910;2022-10-16T05:25:55;23.40;;;11.55;;
21170;SDS011;10743;52.160;20.910;2022-10-16T05:28:28;21.30;;;11.52;;
21170;SDS011;10743;52.160;20.910;2022-10-16T05:30:57;22.08;;;12.05;;
21170;SDS011;10743;52.160;20.910;2022-10-16T05:33:25;23.75;;;12.18;;
21170;SDS011;10743;52.160;20.910;2022-10-16T05:35:53;19.90;;;11.73;;
21170;SDS011;10743;52.160;20.910;2022-10-16T05:38:19;27.35;;;12.32;;
21170;SDS011;10743;52.160;20.910;2022-10-16T05:40:50;22.48;;;12.18;;
21170;SDS011;10743;52.160;20.910;2022-10-16T05:43:22;23.63;;;12.00;;
21170;SDS011;10743;52.160;20.910;2022-10-16T05:48:27;24.20;;;12.23;;
21170;SDS011;10743;52.160;20.910;2022-10-16T05:51:29;21.05;;;11.52;;
21170;SDS011;10743;52.160;20.910;2022-10-16T05:53:48;21.00;;;11.57;;
21170;SDS011;10743;52.160;20.910;2022-10-16T05:56:15;24.40;;;11.98;;
21170;SDS011;10743;52.160;20.910;2022-10-16T05:58:42;24.27;;;11.38;;
21170;SDS011;10743;52.160;20.910;2022-10-16T06:01:12;21.63;;;12.23;;
21170;SDS011;10743;52.160;20.910;2022-10-16T06:03:44;25.38;;;13.15;;
21170;SDS011;10743;52.160;20.910;2022-10-16T06:06:12;20.50;;;11.80;;
21170;SDS011;10743;52.160;20.910;2022-10-16T06:08:42;23.58;;;11.60;;
21170;SDS011;10743;52.160;20.910;2022-10-16T06:11:10;20.92;;;11.77;;
21170;SDS011;10743;52.160;20.910;2022-10-16T06:13:42;18.98;;;11.52;;
21170;SDS011;10743;52.160;20.910;2022-10-16T06:16:12;23.23;;;12.52;;
21170;SDS011;10743;52.160;20.910;2022-10-16T06:18:39;22.58;;;12.27;;
21170;SDS011;10743;52.160;20.910;2022-10-16T06:21:10;22.60;;;11.45;;
21170;SDS011;10743;52.160;20.910;2022-10-16T06:23:40;24.00;;;11.57;;
21170;SDS011;10743;52.160;20.910;2022-10-16T06:26:12;18.23;;;10.73;;
21170;SDS011;10743;52.160;20.910;2022-10-16T06:28:41;21.38;;;11.40;;
21170;SDS011;10743;52.160;20.910;2022-10-16T06:31:09;22.00;;;11.32;;
21170;SDS011;10743;52.160;20.910;2022-10-16T06:33:37;20.50;;;10.98;;
21170;SDS011;10743;52.160;20.910;2022-10-16T06:36:06;19.10;;;11.73;;
21170;SDS011;10743;52.160;20.910;2022-10-16T06:38:37;19.10;;;11.15;;
21170;SDS011;10743;52.160;20.910;2022-10-16T06:41:05;24.13;;;11.52;;
21170;SDS011;10743;52.160;20.910;2022-10-16T06:43:33;19.33;;;11.02;;
21170;SDS011;10743;52.160;20.910;2022-10-16T06:46:04;20.30;;;11.18;;
21170;SDS011;10743;52.160;20.910;2022-10-16T06:48:34;23.10;;;10.75;;
21170;SDS011;10743;52.160;20.910;2022-10-16T06:51:11;18.55;;;10.98;;
21170;SDS011;10743;52.160;20.910;2022-10-16T06:53:43;18.92;;;10.73;;
21170;SDS011;10743;52.160;20.910;2022-10-16T06:56:28;18.02;;;10.70;;
21170;SDS011;10743;52.160;20.910;2022-10-16T06:58:57;21.65;;;10.88;;
21170;SDS011;10743;52.160;20.910;2022-10-16T07:01:25;20.02;;;11.45;;
21170;SDS011;10743;52.160;20.910;2022-10-16T07:03:53;20.17;;;10.15;;
21170;SDS011;10743;52.160;20.910;2022-10-16T07:06:21;21.13;;;11.13;;
21170;SDS011;10743;52.160;20.910;2022-10-16T07:08:50;19.27;;;10.63;;
21170;SDS011;10743;52.160;20.910;2022-10-16T07:11:19;19.58;;;11.55;;
21170;SDS011;10743;52.160;20.910;2022-10-16T07:13:48;19.80;;;9.98;;
21170;SDS011;10743;52.160;20.910;2022-10-16T07:16:23;18.67;;;10.65;;
21170;SDS011;10743;52.160;20.910;2022-10-16T07:18:56;17.35;;;10.65;;
21170;SDS011;10743;52.160;20.910;2022-10-16T07:21:30;20.38;;;11.27;;
21170;SDS011;10743;52.160;20.910;2022-10-16T07:24:03;18.60;;;11.13;;
21170;SDS011;10743;52.160;20.910;2022-10-16T07:26:38;21.13;;;11.40;;
21170;SDS011;10743;52.160;20.910;2022-10-16T07:29:08;19.55;;;10.13;;
21170;SDS011;10743;52.160;20.910;2022-10-16T07:31:40;20.63;;;10.27;;
21170;SDS011;10743;52.160;20.910;2022-10-16T07:34:08;17.35;;;10.75;;
21170;SDS011;10743;52.160;20.910;2022-10-16T07:36:36;18.13;;;10.93;;
21170;SDS011;10743;52.160;20.910;2022-10-16T07:39:03;17.23;;;10.75;;
21170;SDS011;10743;52.160;20.910;2022-10-16T07:41:30;18.35;;;10.50;;
21170;SDS011;10743;52.160;20.910;2022-10-16T07:43:59;17.08;;;10.13;;
21170;SDS011;10743;52.160;20.910;2022-10-16T07:46:26;19.50;;;10.63;;
21170;SDS011;10743;52.160;20.910;2022-10-16T07:48:54;17.05;;;10.73;;
21170;SDS011;10743;52.160;20.910;2022-10-16T07:51:22;18.15;;;10.27;;
21170;SDS011;10743;52.160;20.910;2022-10-16T07:53:51;15.73;;;9.90;;
21170;SDS011;10743;52.160;20.910;2022-10-16T07:56:19;21.10;;;11.05;;
21170;SDS011;10743;52.160;20.910;2022-10-16T07:58:46;23.35;;;10.75;;
21170;SDS011;10743;52.160;20.910;2022-10-16T08:01:15;16.48;;;9.90;;
21170;SDS011;10743;52.160;20.910;2022-10-16T08:03:44;19.20;;;9.90;;
21170;SDS011;10743;52.160;20.910;2022-10-16T08:06:13;17.25;;;10.10;;
21170;SDS011;10743;52.160;20.910;2022-10-16T08:08:41;14.48;;;9.38;;
21170;SDS011;10743;52.160;20.910;2022-10-16T08:11:08;18.67;;;9.75;;
21170;SDS011;10743;52.160;20.910;2022-10-16T08:13:36;19.00;;;8.98;;
21170;SDS011;10743;52.160;20.910;2022-10-16T08:16:03;16.25;;;10.00;;
21170;SDS011;10743;52.160;20.910;2022-10-16T08:18:37;15.93;;;9.32;;
21170;SDS011;10743;52.160;20.910;2022-10-16T08:21:05;16.10;;;9.27;;
21170;SDS011;10743;52.160;20.910;2022-10-16T08:23:34;15.27;;;9.48;;
21170;SDS011;10743;52.160;20.910;2022-10-16T08:26:02;17.00;;;9.80;;
21170;SDS011;10743;52.160;20.910;2022-10-16T08:28:33;17.88;;;9.40;;
21170;SDS011;10743;52.160;20.910;2022-10-16T08:31:35;16.40;;;9.55;;
21170;SDS011;10743;52.160;20.910;2022-10-16T08:33:55;15.93;;;9.43;;
21170;SDS011;10743;52.160;20.910;2022-10-16T08:36:21;13.35;;;8.57;;
21170;SDS011;10743;52.160;20.910;2022-10-16T08:38:49;19.50;;;9.27;;
21170;SDS011;10743;52.160;20.910;2022-10-16T08:47:17;14.68;;;8.82;;
21170;SDS011;10743;52.160;20.910;2022-10-16T08:49:55;16.05;;;9.20;;
21170;SDS011;10743;52.160;20.910;2022-10-16T08:52:28;17.40;;;8.70;;
21170;SDS011;10743;52.160;20.910;2022-10-16T08:54:58;17.33;;;9.13;;
21170;SDS011;10743;52.160;20.910;2022-10-16T08:57:25;20.63;;;9.10;;
21170;SDS011;10743;52.160;20.910;2022-10-16T08:59:59;20.70;;;9.10;;
21170;SDS011;10743;52.160;20.910;2022-10-16T09:02:36;13.57;;;8.88;;
21170;SDS011;10743;52.160;20.910;2022-10-16T09:08:08;14.73;;;8.70;;
21170;SDS011;10743;52.160;20.910;2022-10-16T09:11:02;17.45;;;8.77;;
21170;SDS011;10743;52.160;20.910;2022-10-16T09:23:28;14.20;;;9.02;;
21170;SDS011;10743;52.160;20.910;2022-10-16T09:25:57;17.55;;;8.52;;
21170;SDS011;10743;52.160;20.910;2022-10-16T09:28:25;15.18;;;8.70;;
21170;SDS011;10743;52.160;20.910;2022-10-16T09:30:53;14.32;;;8.30;;
21170;SDS011;10743;52.160;20.910;2022-10-16T09:33:21;16.20;;;9.35;;
21170;SDS011;10743;52.160;20.910;2022-10-16T09:35:53;19.40;;;9.15;;
21170;SDS011;10743;52.160;20.910;2022-10-16T09:38:28;16.88;;;8.82;;
21170;SDS011;10743;52.160;20.910;2022-10-16T09:41:03;19.58;;;9.40;;
21170;SDS011;10743;52.160;20.910;2022-10-16T09:43:54;15.85;;;9.77;;
21170;SDS011;10743;52.160;20.910;2022-10-16T09:46:28;14.10;;;8.82;;
21170;SDS011;10743;52.160;20.910;2022-10-16T09:49:22;14.23;;;8.93;;
21170;SDS011;10743;52.160;20.910;2022-10-16T09:52:05;13.85;;;8.70;;
21170;SDS011;10743;52.160;20.910;2022-10-16T09:54:48;13.45;;;8.32;;
21170;SDS011;10743;52.160;20.910;2022-10-16T09:57:26;15.30;;;8.85;;
21170;SDS011;10743;52.160;20.910;2022-10-16T09:59:54;16.25;;;8.80;;
21170;SDS011;10743;52.160;20.910;2022-10-16T10:02:28;12.95;;;8.07;;
21170;SDS011;10743;52.160;20.910;2022-10-16T10:05:00;13.77;;;8.55;;
21170;SDS011;10743;52.160;20.910;2022-10-16T10:07:39;13.40;;;8.65;;
21170;SDS011;10743;52.160;20.910;2022-10-16T10:10:19;15.57;;;9.15;;
21170;SDS011;10743;52.160;20.910;2022-10-16T10:12:53;14.30;;;7.93;;
21170;SDS011;10743;52.160;20.910;2022-10-16T10:15:21;15.25;;;8.43;;
21170;SDS011;10743;52.160;20.910;2022-10-16T10:17:51;14.82;;;8.57;;
21170;SDS011;10743;52.160;20.910;2022-10-16T10:20:30;15.00;;;8.95;;
21170;SDS011;10743;52.160;20.910;2022-10-16T10:23:01;15.48;;;8.95;;
21170;SDS011;10743;52.160;20.910;2022-10-16T10:25:49;16.38;;;8.27;;
21170;SDS011;10743;52.160;20.910;2022-10-16T10:34:41;13.98;;;8.02;;
21170;SDS011;10743;52.160;20.910;2022-10-16T10:46:28;14.45;;;8.63;;
21170;SDS011;10743;52.160;20.910;2022-10-16T10:49:19;14.65;;;8.40;;
21170;SDS011;10743;52.160;20.910;2022-10-16T10:57:53;14.77;;;7.80;;
21170;SDS011;10743;52.160;20.910;2022-10-16T11:00:48;14.30;;;8.40;;
21170;SDS011;10743;52.160;20.910;2022-10-16T11:07:12;12.32;;;7.72;;
21170;SDS011;10743;52.160;20.910;2022-10-16T11:09:51;12.90;;;7.82;;
21170;SDS011;10743;52.160;20.910;2022-10-16T11:12:39;14.15;;;8.70;;
21170;SDS011;10743;52.160;20.910;2022-10-16T11:15:14;17.98;;;8.85;;
21170;SDS011;10743;52.160;20.910;2022-10-16T11:18:00;19.83;;;8.93;;
21170;SDS011;10743;52.160;20.910;2022-10-16T11:20:59;14.25;;;8.77;;
21170;SDS011;10743;52.160;20.910;2022-10-16T11:23:45;11.30;;;7.55;;
21170;SDS011;10743;52.160;20.910;2022-10-16T11:26:21;18.73;;;7.80;;
21170;SDS011;10743;52.160;20.910;2022-10-16T11:28:54;20.58;;;8.50;;
21170;SDS011;10743;52.160;20.910;2022-10-16T11:31:30;15.15;;;8.02;;
21170;SDS011;10743;52.160;20.910;2022-10-16T11:34:22;10.98;;;7.32;;
21170;SDS011;10743;52.160;20.910;2022-10-16T11:36:53;12.07;;;7.30;;
21170;SDS011;10743;52.160;20.910;2022-10-16T11:39:26;12.45;;;8.07;;
21170;SDS011;10743;52.160;20.910;2022-10-16T11:41:57;12.68;;;7.68;;
21170;SDS011;10743;52.160;20.910;2022-10-16T11:44:54;15.18;;;7.85;;
21170;SDS011;10743;52.160;20.910;2022-10-16T11:47:52;14.73;;;7.88;;
21170;SDS011;10743;52.160;20.910;2022-10-16T11:56:20;12.32;;;7.50;;
21170;SDS011;10743;52.160;20.910;2022-10-16T12:01:46;12.07;;;7.65;;
21170;SDS011;10743;52.160;20.910;2022-10-16T12:07:18;14.60;;;7.25;;
21170;SDS011;10743;52.160;20.910;2022-10-16T12:09:51;11.88;;;6.97;;
21170;SDS011;10743;52.160;20.910;2022-10-16T12:12:27;10.23;;;6.63;;
21170;SDS011;10743;52.160;20.910;2022-10-16T12:17:51;12.57;;;7.13;;
21170;SDS011;10743;52.160;20.910;2022-10-16T12:22:57;11.27;;;7.72;;
21170;SDS011;10743;52.160;20.910;2022-10-16T12:25:37;14.27;;;7.68;;
21170;SDS011;10743;52.160;20.910;2022-10-16T12:30:42;12.05;;;7.68;;
21170;SDS011;10743;52.160;20.910;2022-10-16T12:33:23;12.73;;;8.23;;
21170;SDS011;10743;52.160;20.910;2022-10-16T12:35:53;13.07;;;8.18;;
21170;SDS011;10743;52.160;20.910;2022-10-16T12:38:22;13.48;;;8.10;;
21170;SDS011;10743;52.160;20.910;2022-10-16T12:41:04;14.32;;;7.63;;
21170;SDS011;10743;52.160;20.910;2022-10-16T12:43:39;15.45;;;8.18;;
21170;SDS011;10743;52.160;20.910;2022-10-16T12:48:40;12.02;;;7.72;;
21170;SDS011;10743;52.160;20.910;2022-10-16T12:54:34;11.73;;;7.22;;
21170;SDS011;10743;52.160;20.910;2022-10-16T12:57:27;12.38;;;7.47;;
21170;SDS011;10743;52.160;20.910;2022-10-16T13:06:25;13.80;;;7.38;;
21170;SDS011;10743;52.160;20.910;2022-10-16T13:15:58;13.80;;;7.30;;
21170;SDS011;10743;52.160;20.910;2022-10-16T13:21:54;12.57;;;6.72;;
21170;SDS011;10743;52.160;20.910;2022-10-16T13:24:38;15.98;;;6.68;;
21170;SDS011;10743;52.160;20.910;2022-10-16T13:27:58;10.93;;;7.03;;
21170;SDS011;10743;52.160;20.910;2022-10-16T13:30:39;10.65;;;5.68;;
21170;SDS011;10743;52.160;20.910;2022-10-16T13:33:21;10.55;;;6.20;;
21170;SDS011;10743;52.160;20.910;2022-10-16T13:36:01;9.40;;;6.15;;
21170;SDS011;10743;52.160;20.910;2022-10-16T13:38:31;11.27;;;5.80;;
21170;SDS011;10743;52.160;20.910;2022-10-16T13:41:04;9.38;;;6.45;;
21170;SDS011;10743;52.160;20.910;2022-10-16T13:43:41;11.35;;;6.75;;
21170;SDS011;10743;52.160;20.910;2022-10-16T13:48:59;10.98;;;6.32;;
21170;SDS011;10743;52.160;20.910;2022-10-16T13:51:30;10.38;;;6.75;;
21170;SDS011;10743;52.160;20.910;2022-10-16T13:53:58;10.35;;;6.25;;
21170;SDS011;10743;52.160;20.910;2022-10-16T13:56:27;11.77;;;6.35;;
21170;SDS011;10743;52.160;20.910;2022-10-16T13:59:07;11.98;;;6.68;;
21170;SDS011;10743;52.160;20.910;2022-10-16T14:01:53;9.93;;;6.65;;
21170;SDS011;10743;52.160;20.910;2022-10-16T14:04:23;9.68;;;6.95;;
21170;SDS011;10743;52.160;20.910;2022-10-16T14:06:51;9.45;;;6.32;;
21170;SDS011;10743;52.160;20.910;2022-10-16T14:09:21;13.05;;;6.75;;
21170;SDS011;10743;52.160;20.910;2022-10-16T14:11:55;11.93;;;6.70;;
21170;SDS011;10743;52.160;20.910;2022-10-16T14:14:26;11.25;;;7.18;;
21170;SDS011;10743;52.160;20.910;2022-10-16T14:19:56;11.52;;;7.03;;
21170;SDS011;10743;52.160;20.910;2022-10-16T14:22:33;10.75;;;6.88;;
21170;SDS011;10743;52.160;20.910;2022-10-16T14:27:56;11.27;;;6.70;;
21170;SDS011;10743;52.160;20.910;2022-10-16T14:30:32;11.82;;;6.63;;
21170;SDS011;10743;52.160;20.910;2022-10-16T14:33:03;10.20;;;7.10;;
21170;SDS011;10743;52.160;20.910;2022-10-16T14:35:56;12.50;;;6.82;;
21170;SDS011;10743;52.160;20.910;2022-10-16T14:38:39;15.10;;;7.55;;
21170;SDS011;10743;52.160;20.910;2022-10-16T14:41:15;9.77;;;6.70;;
21170;SDS011;10743;52.160;20.910;2022-10-16T14:43:56;12.40;;;7.32;;
21170;SDS011;10743;52.160;20.910;2022-10-16T14:46:31;11.95;;;7.00;;
21170;SDS011;10743;52.160;20.910;2022-10-16T14:49:03;14.07;;;7.63;;
21170;SDS011;10743;52.160;20.910;2022-10-16T14:51:44;14.55;;;7.32;;
21170;SDS011;10743;52.160;20.910;2022-10-16T14:54:12;19.17;;;8.35;;
21170;SDS011;10743;52.160;20.910;2022-10-16T14:56:45;13.27;;;7.93;;
21170;SDS011;10743;52.160;20.910;2022-10-16T15:02:25;14.23;;;7.97;;
21170;SDS011;10743;52.160;20.910;2022-10-16T15:04:56;14.40;;;7.95;;
21170;SDS011;10743;52.160;20.910;2022-10-16T15:07:24;18.15;;;9.93;;
21170;SDS011;10743;52.160;20.910;2022-10-16T15:09:52;13.07;;;7.88;;
21170;SDS011;10743;52.160;20.910;2022-10-16T15:12:19;13.52;;;7.93;;
21170;SDS011;10743;52.160;20.910;2022-10-16T15:14:47;11.52;;;7.38;;
21170;SDS011;10743;52.160;20.910;2022-10-16T15:17:13;14.02;;;7.78;;
21170;SDS011;10743;52.160;20.910;2022-10-16T15:19:45;18.95;;;7.95;;
21170;SDS011;10743;52.160;20.910;2022-10-16T15:22:12;12.60;;;7.95;;
21170;SDS011;10743;52.160;20.910;2022-10-16T15:24:39;12.02;;;7.80;;
21170;SDS011;10743;52.160;20.910;2022-10-16T15:27:05;16.05;;;8.18;;
21170;SDS011;10743;52.160;20.910;2022-10-16T15:29:32;15.95;;;7.85;;
21170;SDS011;10743;52.160;20.910;2022-10-16T15:31:59;14.13;;;7.97;;
21170;SDS011;10743;52.160;20.910;2022-10-16T15:34:26;10.68;;;7.57;;
21170;SDS011;10743;52.160;20.910;2022-10-16T15:36:53;10.82;;;7.47;;
21170;SDS011;10743;52.160;20.910;2022-10-16T15:39:21;14.27;;;7.90;;
21170;SDS011;10743;52.160;20.910;2022-10-16T15:41:48;12.20;;;8.32;;
21170;SDS011;10743;52.160;20.910;2022-10-16T15:44:17;13.80;;;8.60;;
21170;SDS011;10743;52.160;20.910;2022-10-16T15:46:45;16.92;;;8.00;;
21170;SDS011;10743;52.160;20.910;2022-10-16T15:49:13;14.40;;;7.93;;
21170;SDS011;10743;52.160;20.910;2022-10-16T15:51:41;14.15;;;8.30;;
21170;SDS011;10743;52.160;20.910;2022-10-16T15:54:08;11.88;;;7.63;;
21170;SDS011;10743;52.160;20.910;2022-10-16T15:56:35;14.45;;;8.45;;
21170;SDS011;10743;52.160;20.910;2022-10-16T15:59:03;15.98;;;8.43;;
21170;SDS011;10743;52.160;20.910;2022-10-16T16:01:32;17.42;;;8.20;;
21170;SDS011;10743;52.160;20.910;2022-10-16T16:04:00;13.65;;;8.63;;
21170;SDS011;10743;52.160;20.910;2022-10-16T16:06:45;16.65;;;8.00;;
21170;SDS011;10743;52.160;20.910;2022-10-16T16:09:12;13.60;;;8.18;;
21170;SDS011;10743;52.160;20.910;2022-10-16T16:11:40;14.35;;;8.75;;
21170;SDS011;10743;52.160;20.910;2022-10-16T16:14:12;14.43;;;8.15;;
21170;SDS011;10743;52.160;20.910;2022-10-16T16:16:40;14.02;;;8.75;;
21170;SDS011;10743;52.160;20.910;2022-10-16T16:19:08;14.63;;;8.85;;
21170;SDS011;10743;52.160;20.910;2022-10-16T16:21:37;14.18;;;9.43;;
21170;SDS011;10743;52.160;20.910;2022-10-16T16:24:05;19.38;;;12.10;;
21170;SDS011;10743;52.160;20.910;2022-10-16T16:26:34;29.60;;;17.90;;
21170;SDS011;10743;52.160;20.910;2022-10-16T16:29:06;32.92;;;19.52;;
21170;SDS011;10743;52.160;20.910;2022-10-16T16:31:34;31.10;;;19.13;;
21170;SDS011;10743;52.160;20.910;2022-10-16T16:34:02;31.05;;;19.55;;
21170;SDS011;10743;52.160;20.910;2022-10-16T16:36:29;30.05;;;17.80;;
21170;SDS011;10743;52.160;20.910;2022-10-16T16:38:56;21.10;;;13.50;;